Data for 06/16/2016

Time Sea-Level Adjusted Pressure Absolute Pressure Temperature Relative Humidity Dew Point   
(mb) (inHg) (mb) (inHg) (C) (F) (%) (C) (F)
00:05 1012 29.88 841 24.83 8.5 47.2 91 7.1 44.8
00:10 1013 29.91 842 24.86 8.5 47.4 91 7.1 44.8
00:15 1013 29.91 842 24.86 8.5 47.3 91 7 44.7
00:20 1011 29.85 841 24.83 8.2 46.8 91 6.9 44.4
00:25 1011 29.85 840 24.81 8.1 46.6 92 6.9 44.4
00:30 1011 29.85 840 24.81 8 46.4 92 6.9 44.4
00:35 1011 29.85 840 24.81 8 46.5 92 6.9 44.4
00:40 1011 29.85 840 24.81 8.1 46.5 93 6.9 44.5
00:45 1011 29.85 841 24.83 8.1 46.6 93 7 44.6
00:50 1011 29.85 840 24.81 8.1 46.7 93 7 44.6
00:55 1011 29.85 840 24.81 8.2 46.7 93 7 44.7
01:00 1011 29.85 840 24.81 8.2 46.7 92 7 44.7
01:05 1011 29.85 840 24.81 8.2 46.8 92 7 44.7
01:10 1011 29.85 840 24.81 8.3 46.9 92 7 44.6
01:15 1010 29.83 840 24.81 8.3 47 90 6.9 44.4
01:20 1010 29.83 840 24.81 8.5 47.3 89 6.9 44.3
01:25 1011 29.85 840 24.81 8.6 47.5 88 6.7 44.1
01:30 1011 29.85 840 24.81 8.9 48 87 6.9 44.4
01:35 1011 29.85 840 24.81 8.8 47.8 89 7 44.6
01:40 1011 29.85 841 24.83 8.6 47.5 90 7 44.6
01:45 1012 29.88 841 24.83 8.6 47.4 89 6.9 44.4
01:50 1012 29.88 841 24.83 8.3 47 90 6.8 44.3
01:55 1012 29.88 842 24.86 8.3 46.9 90 6.8 44.3
02:00 1013 29.91 842 24.86 8.1 46.6 90 6.6 43.9
02:05 1013 29.91 842 24.86 7.9 46.3 90 6.5 43.6
02:10 1012 29.88 841 24.83 7.9 46.3 91 6.5 43.8
02:15 1012 29.88 841 24.83 7.9 46.3 91 6.6 43.8
02:20 1012 29.88 841 24.83 7.8 46.1 92 6.6 43.8
02:25 1012 29.88 842 24.86 7.8 46 92 6.6 43.9
02:30 1013 29.91 842 24.86 7.9 46.2 93 6.8 44.2
02:35 1013 29.91 842 24.86 8 46.5 93 6.9 44.4
02:40 1013 29.91 842 24.86 8 46.5 92 6.9 44.4
02:45 1013 29.91 842 24.86 7.9 46.1 92 6.7 44
02:50 1013 29.91 843 24.89 7.8 46.1 92 6.7 44
02:55 1013 29.91 843 24.89 7.8 46.1 92 6.7 44
03:00 1013 29.91 843 24.89 7.8 46.1 92 6.7 44
03:05 1013 29.91 842 24.86 7.8 46.1 92 6.7 44
03:10 1013 29.91 843 24.89 7.9 46.1 92 6.7 44.1
03:15 1013 29.91 843 24.89 7.9 46.2 93 6.8 44.2
03:20 1014 29.94 843 24.89 7.8 46.1 93 6.7 44.1
03:25 1014 29.94 843 24.89 7.9 46.2 92 6.7 44.1
03:30 1014 29.94 843 24.89 7.8 46 92 6.6 43.8
03:35 1014 29.94 844 24.92 7.8 46.1 91 6.4 43.6
03:40 1015 29.97 844 24.92 7.8 46.1 90 6.2 43.2
03:45 1015 29.97 844 24.92 7.7 45.9 89 6 42.9
03:50 1015 29.97 844 24.92 7.7 45.8 90 6.1 42.9
03:55 1015 29.97 844 24.92 7.6 45.7 89 5.9 42.7
04:00 1015 29.97 844 24.92 7.6 45.6 89 5.8 42.5
04:05 1015 29.97 844 24.92 7.5 45.5 88 5.7 42.2
04:10 1015 29.97 844 24.92 7.6 45.6 89 5.8 42.5
04:15 1014 29.94 844 24.92 7.6 45.7 89 6 42.8
04:20 1014 29.94 843 24.89 7.5 45.5 90 6 42.8
04:25 1014 29.94 843 24.89 7.4 45.3 90 5.9 42.7
04:30 1014 29.94 843 24.89 7.3 45.2 90 5.8 42.5
04:35 1014 29.94 843 24.89 7.2 44.9 90 5.7 42.2
04:40 1014 29.94 843 24.89 7.1 44.9 90 5.6 42.1
04:45 1014 29.94 843 24.89 7.1 44.8 90 5.6 42.1
04:50 1014 29.94 843 24.89 7.1 44.8 90 5.5 41.9
04:55 1014 29.94 843 24.89 7.2 44.9 87 5.2 41.4
05:00 1013 29.91 842 24.86 7.2 44.9 87 5.1 41.2
05:05 1013 29.91 842 24.86 7.2 45 86 5 41.1
05:10 1013 29.91 843 24.89 7.2 45 87 5.2 41.4
05:15 1014 29.94 843 24.89 7.3 45.2 86 5.2 41.3
05:20 1014 29.94 843 24.89 7.5 45.4 86 5.3 41.5
05:25 1014 29.94 843 24.89 7.5 45.5 87 5.5 41.8
05:30 1014 29.94 843 24.89 7.4 45.2 87 5.4 41.7
05:35 1014 29.94 843 24.89 7.3 45.1 87 5.3 41.6
05:40 1013 29.91 842 24.86 7.9 46.2 79 4.5 40.1
05:45 1013 29.91 842 24.86 8.6 47.4 77 4.8 40.7
05:50 1013 29.91 842 24.86 8.6 47.4 81 5.4 41.8
05:55 1013 29.91 842 24.86 8.3 46.9 81 5.3 41.5
06:00 1013 29.91 842 24.86 8.2 46.8 81 5.2 41.4
06:05 1013 29.91 842 24.86 8.5 47.3 80 5.3 41.6
06:10 1013 29.91 842 24.86 8.7 47.6 82 5.7 42.2
06:15 1013 29.91 843 24.89 8.7 47.7 77 4.9 40.9
06:20 1014 29.94 843 24.89 9.1 48.4 77 5.3 41.5
06:25 1014 29.94 843 24.89 9.5 49 69 4.1 39.4
06:30 1014 29.94 843 24.89 10.1 50.2 68 4.5 40.1
06:35 1014 29.94 843 24.89 10.6 51.1 68 5.1 41.1
06:40 1014 29.94 843 24.89 10.5 50.9 74 6.1 43
06:45 1014 29.94 843 24.89 10.3 50.5 77 6.5 43.6
06:50 1014 29.94 843 24.89 10 49.9 75 5.8 42.5
06:55 1014 29.94 843 24.89 9.5 49 79 6.1 42.9
07:00 1014 29.94 843 24.89 9.3 48.7 80 6 42.9
07:05 1014 29.94 843 24.89 9.6 49.3 80 6.3 43.4
07:10 1014 29.94 844 24.92 9.9 49.8 75 5.6 42.1
07:15 1014 29.94 844 24.92 10.3 50.5 77 6.4 43.5
07:20 1014 29.94 844 24.92 10.9 51.6 76 6.9 44.4
07:25 1015 29.97 844 24.92 10.9 51.7 79 7.5 45.4
07:30 1015 29.97 844 24.92 10.5 50.9 81 7.3 45.2
07:35 1015 29.97 844 24.92 10.3 50.5 82 7.3 45.2
07:40 1015 29.97 844 24.92 10.6 51 80 7.3 45.2
07:45 1015 29.97 844 24.92 11 51.7 79 7.4 45.4
07:50 1015 29.97 844 24.92 11.4 52.5 78 7.7 45.8
07:55 1015 29.97 844 24.92 11.5 52.8 72 6.8 44.2
08:00 1015 29.97 844 24.92 11.8 53.2 71 6.7 44.1
08:05 1015 29.97 844 24.92 11.6 52.9 74 7.3 45.1
08:10 1015 29.97 844 24.92 11.1 51.9 76 6.9 44.5
08:15 1015 29.97 844 24.92 11.5 52.6 72 6.5 43.7
08:20 1015 29.97 844 24.92 11.6 52.8 71 6.5 43.6
08:25 1015 29.97 844 24.92 11.4 52.6 68 5.8 42.4
08:30 1015 29.97 844 24.92 11.4 52.4 67 5.5 41.8
08:35 1015 29.97 844 24.92 11.7 53.1 67 5.8 42.4
08:40 1015 29.97 844 24.92 12.3 54.1 62 5.3 41.6
08:45 1015 29.97 844 24.92 13.4 56 60 5.8 42.4
08:50 1015 29.97 844 24.92 13.2 55.8 62 6.2 43.2
08:55 1015 29.97 844 24.92 12.7 54.9 59 5.1 41.1
09:00 1015 29.97 844 24.92 13.9 57 56 5.2 41.4
09:05 1015 29.97 844 24.92 14.6 58.3 54 5.5 41.8
09:10 1015 29.97 844 24.92 14.1 57.4 56 5.6 42.1
09:15 1015 29.97 844 24.92 14.4 57.8 59 6.5 43.7
09:20 1015 29.97 844 24.92 14.6 58.2 56 5.9 42.6
09:25 1015 29.97 844 24.92 14.6 58.2 58 6.5 43.8
09:30 1015 29.97 844 24.92 14.6 58.2 54 5.5 41.8
09:35 1015 29.97 844 24.92 14.1 57.4 58 6.1 42.9
09:40 1015 29.97 844 24.92 14.1 57.4 57 5.7 42.3
09:45 1015 29.97 844 24.92 14.8 58.6 55 5.9 42.6
09:50 1015 29.97 844 24.92 14.4 58 53 5.1 41.2
09:55 1015 29.97 844 24.92 14.4 57.8 56 5.9 42.6
10:00 1015 29.97 844 24.92 15 59.1 50 4.9 40.8
10:05 1015 29.97 844 24.92 16.1 61 47 4.7 40.5
10:10 1015 29.97 844 24.92 16.7 62.1 46 5.2 41.4
10:15 1015 29.97 844 24.92 16.9 62.4 45 4.9 40.9
10:20 1015 29.97 844 24.92 17 62.6 45 5.1 41.2
10:25 1015 29.97 844 24.92 16.5 61.7 36 1.6 34.9
10:30 1015 29.97 844 24.92 16.2 61.2 35 0.9 33.6
10:35 1015 29.97 844 24.92 16.1 61 33 -0.2 31.6
10:40 1015 29.97 844 24.92 16.2 61.1 35 0.9 33.7
10:45 1015 29.97 844 24.92 16.6 61.8 33 0.2 32.4
10:50 1015 29.97 844 24.92 16.3 61.4 31 -0.5 31
10:55 1015 29.97 844 24.92 16.6 61.8 33 0.3 32.5
11:00 1015 29.97 844 24.92 16.8 62.3 32 0.4 32.7
11:05 1015 29.97 844 24.92 16.8 62.2 33 0.5 32.8
11:10 1015 29.97 844 24.92 16.9 62.5 32 0.1 32.2
11:15 1015 29.97 844 24.92 16.3 61.3 32 -0.2 31.7
11:20 1015 29.97 844 24.92 16.4 61.6 32 -0.2 31.6
11:25 1015 29.97 845 24.95 16.5 61.7 34 0.9 33.6
11:30 1015 29.97 845 24.95 17.1 62.7 33 0.9 33.6
11:35 1015 29.97 845 24.95 17.3 63.2 34 1.4 34.5
11:40 1015 29.97 845 24.95 17.5 63.6 33 1.2 34.2
11:45 1015 29.97 845 24.95 17.2 62.9 42 4.4 39.9
11:50 1015 29.97 845 24.95 16.7 62.1 45 5 40.9
11:55 1015 29.97 845 24.95 16.3 61.4 46 4.9 40.8
12:00 1015 29.97 845 24.95 16.5 61.6 41 3.1 37.7
12:05 1016 30 845 24.95 16.3 61.3 42 3.4 38.1
12:10 1016 30 845 24.95 16.5 61.6 40 2.9 37.2
12:15 1016 30 845 24.95 16.3 61.3 40 2.7 36.9
12:20 1016 30 845 24.95 16 60.8 37 1.6 34.9
12:25 1016 30 845 24.95 16.8 62.2 33 0.5 32.8
12:30 1016 30 845 24.95 17.9 64.1 30 0.4 32.7
12:35 1016 30 845 24.95 18.2 64.7 31 0.9 33.6
12:40 1016 30 845 24.95 17.5 63.6 29 -0.4 31.3
12:45 1016 30 845 24.95 17.3 63.1 22 -4.4 24.1
12:50 1016 30 845 24.95 17.3 63.2 23 -4 24.8
12:55 1016 30 845 24.95 17.4 63.2 24 -3.5 25.7
13:00 1016 30 845 24.95 17.4 63.3 23 -3.8 25.1
13:05 1016 30 845 24.95 17 62.6 22 -4.5 23.8
13:10 1016 30 845 24.95 16.8 62.3 24 -3.9 25
13:15 1016 30 845 24.95 16.8 62.2 23 -4.1 24.7
13:20 1016 30 845 24.95 16.7 62.1 26 -2.9 26.8
13:25 1016 30 845 24.95 16.8 62.3 24 -3.6 25.5
13:30 1016 30 845 24.95 16.9 62.3 25 -3.4 25.8
13:35 1016 30 845 24.95 17 62.6 25 -2.9 26.8
13:40 1016 30 845 24.95 17.2 63 24 -3.2 26.2
13:45 1016 30 845 24.95 17.4 63.3 23 -3.6 25.5
13:50 1016 30 845 24.95 17.5 63.5 24 -3 26.6
13:55 1016 30 845 24.95 17.7 63.8 24 -3 26.6
14:00 1016 30 845 24.95 17.8 64 25 -2.6 27.3
14:05 1016 30 845 24.95 17.7 63.8 24 -2.8 26.9
14:10 1016 30 845 24.95 17.8 64.1 24 -3.1 26.3
14:15 1016 30 845 24.95 18 64.4 24 -2.8 26.9
14:20 1016 30 845 24.95 18.2 64.8 23 -3 26.5
14:25 1016 30 846 24.98 18.1 64.6 22 -3.6 25.6
14:30 1016 30 846 24.98 18.1 64.5 23 -3.1 26.3
14:35 1016 30 846 24.98 18.2 64.8 23 -3 26.7
14:40 1016 30 846 24.98 18.2 64.8 23 -3.2 26.3
14:45 1016 30 846 24.98 18.3 64.9 23 -2.8 26.9
14:50 1016 30 846 24.98 18.4 65.2 24 -2.4 27.8
14:55 1017 30.03 846 24.98 18.5 65.3 24 -2.3 27.8
15:00 1017 30.03 846 24.98 18.6 65.5 24 -2.3 27.9
15:05 1016 30 846 24.98 18.6 65.4 22 -3.5 25.7
15:10 1017 30.03 846 24.98 18.6 65.5 22 -3.4 26
15:15 1017 30.03 846 24.98 18.8 65.8 19 -4.9 23.2
15:20 1017 30.03 846 24.98 18.9 66 20 -4.3 24.3
15:25 1017 30.03 846 24.98 18.9 66.1 19 -5 22.9
15:30 1017 30.03 846 24.98 18.9 65.9 21 -3.9 25
15:35 1017 30.03 846 24.98 19.1 66.4 18 -5.6 21.9
15:40 1017 30.03 846 24.98 19 66.1 18 -6 21.2
15:45 1017 30.03 846 24.98 19 66.2 17 -6.8 19.7
15:50 1017 30.03 846 24.98 19 66.2 17 -6.8 19.7
15:55 1017 30.03 846 24.98 18.9 65.9 15 -8.3 17
16:00 1017 30.03 846 24.98 19 66.1 17 -6.7 19.9
16:05 1017 30.03 846 24.98 19 66.1 17 -6.9 19.6
16:10 1017 30.03 846 24.98 18.9 65.9 16 -7.8 18
16:15 1017 30.03 846 24.98 19.3 66.7 17 -6.3 20.6
16:20 1017 30.03 846 24.98 19.2 66.5 15 -8.4 16.9
16:25 1017 30.03 846 24.98 19.1 66.3 16 -7.1 19.3
16:30 1017 30.03 846 24.98 19.2 66.5 16 -7.2 19.1
16:35 1017 30.03 846 24.98 19.1 66.4 16 -7.5 18.4
16:40 1017 30.03 846 24.98 18.9 66 17 -6.6 20.2
16:45 1017 30.03 846 24.98 19 66.2 17 -6.5 20.3
16:50 1017 30.03 846 24.98 19.1 66.3 15 -7.8 18
16:55 1017 30.03 847 25.01 19 66.2 16 -6.9 19.5
17:00 1017 30.03 847 25.01 19.1 66.4 16 -7.5 18.4
17:05 1017 30.03 847 25.01 19.1 66.4 18 -5.6 21.9
17:10 1017 30.03 847 25.01 18.9 66.1 15 -7.8 17.9
17:15 1017 30.03 847 25.01 19 66.3 17 -6.6 20.2
17:20 1017 30.03 847 25.01 18.7 65.7 15 -7.9 17.7
17:25 1017 30.03 847 25.01 18.7 65.7 17 -7 19.4
17:30 1018 30.06 847 25.01 18.7 65.7 18 -5.9 21.3
17:35 1018 30.06 847 25.01 18.7 65.6 18 -6 21.2
17:40 1018 30.06 847 25.01 18.7 65.6 18 -5.9 21.4
17:45 1018 30.06 847 25.01 18.6 65.5 18 -6 21.2
17:50 1018 30.06 847 25.01 18.6 65.4 18 -6.2 20.8
17:55 1018 30.06 847 25.01 18.7 65.7 17 -7 19.5
18:00 1018 30.06 847 25.01 18.9 65.9 17 -6.5 20.4
18:05 1018 30.06 847 25.01 18.8 65.9 18 -5.9 21.3
18:10 1018 30.06 847 25.01 18.6 65.5 19 -5.7 21.8
18:15 1018 30.06 847 25.01 18.3 65 20 -5.1 22.8
18:20 1018 30.06 847 25.01 17.9 64.2 21 -4.6 23.7
18:25 1018 30.06 847 25.01 17.6 63.7 21 -4.9 23.1
18:30 1018 30.06 848 25.04 17.3 63.1 20 -5.7 21.7
18:35 1018 30.06 848 25.04 17 62.6 21 -5.4 22.2
18:40 1019 30.09 848 25.04 16.8 62.2 21 -5.5 22.1
18:45 1019 30.09 848 25.04 16.6 61.9 22 -5.3 22.4
18:50 1019 30.09 848 25.04 16.6 61.8 22 -5.1 22.8
18:55 1019 30.09 848 25.04 16.4 61.4 25 -3.4 25.9
19:00 1019 30.09 848 25.04 16 60.8 29 -1.7 28.9
19:05 1019 30.09 848 25.04 15.8 60.4 31 -1.3 29.7
19:10 1019 30.09 848 25.04 15.6 60.1 32 -1.1 30.1
19:15 1019 30.09 849 25.07 15.5 59.8 33 -0.7 30.7
19:20 1019 30.09 849 25.07 15.3 59.5 34 -0.3 31.5
19:25 1019 30.09 849 25.07 15.1 59.2 34 -0.6 30.9
19:30 1019 30.09 849 25.07 15 58.9 36 0.2 32.4
19:35 1019 30.09 849 25.07 14.6 58.4 36 -0.2 31.6
19:40 1020 30.12 849 25.07 14.5 58.2 37 0.2 32.3
19:45 1020 30.12 849 25.07 14.4 57.8 36 -0.4 31.3
19:50 1020 30.12 849 25.07 14.2 57.6 37 -0.2 31.6
19:55 1020 30.12 849 25.07 13.9 57.1 40 0.6 33
20:00 1020 30.12 849 25.07 13.6 56.4 42 1.1 34
20:05 1020 30.12 850 25.1 13.2 55.8 45 1.6 34.8
20:10 1021 30.15 850 25.1 12.9 55.1 46 1.7 35.1
20:15 1021 30.15 850 25.1 12.6 54.7 48 1.9 35.5
20:20 1021 30.15 850 25.1 12.4 54.2 49 2 35.6
20:25 1021 30.15 850 25.1 12.1 53.8 51 2.4 36.2
20:30 1021 30.15 851 25.13 11.8 53.3 52 2.3 36.1
20:35 1022 30.18 851 25.13 11.6 52.9 53 2.4 36.2
20:40 1022 30.18 851 25.13 11.4 52.6 53 2.3 36.1
20:45 1022 30.18 851 25.13 11.3 52.3 53 2.1 35.8
20:50 1022 30.18 851 25.13 11.1 52 53 2.1 35.7
20:55 1022 30.18 851 25.13 10.6 51.1 59 3.1 37.6
21:00 1022 30.18 852 25.16 10 49.9 60 2.7 36.9
21:05 1023 30.21 852 25.16 9.8 49.6 62 2.8 37.1
21:10 1023 30.21 852 25.16 9.6 49.2 62 2.7 36.8
21:15 1023 30.21 852 25.16 9.4 48.8 62 2.5 36.6
21:20 1023 30.21 852 25.16 9.3 48.7 62 2.3 36.2
21:25 1023 30.21 852 25.16 9.4 48.8 61 2.3 36.1
21:30 1023 30.21 852 25.16 9.4 48.8 61 2.2 36
21:35 1023 30.21 852 25.16 9.3 48.8 61 2.2 36
21:40 1023 30.21 852 25.16 9.3 48.7 61 2.2 35.9
21:45 1023 30.21 852 25.16 9.2 48.6 61 2.1 35.7
21:50 1023 30.21 852 25.16 9.2 48.5 60 1.9 35.4
21:55 1023 30.21 852 25.16 9.3 48.8 59 1.7 35.1
22:00 1023 30.21 852 25.16 9.3 48.8 60 2.1 35.7
22:05 1023 30.21 852 25.16 9 48.2 62 2.1 35.7
22:10 1023 30.21 852 25.16 8.8 47.9 61 1.8 35.3
22:15 1023 30.21 852 25.16 8.9 47.9 61 1.7 35.1
22:20 1023 30.21 852 25.16 8.8 47.9 62 1.9 35.4
22:25 1023 30.21 852 25.16 8.7 47.7 62 1.9 35.4
22:30 1023 30.21 852 25.16 8.6 47.5 63 2 35.5
22:35 1023 30.21 852 25.16 8.4 47.1 64 1.9 35.5
22:40 1023 30.21 852 25.16 8 46.4 65 1.9 35.4
22:45 1023 30.21 852 25.16 7.8 46.1 66 1.8 35.3
22:50 1023 30.21 852 25.16 7.7 45.9 66 1.9 35.5
22:55 1023 30.21 852 25.16 7.5 45.5 67 1.9 35.4
23:00 1023 30.21 852 25.16 7.4 45.3 67 1.8 35.2
23:05 1023 30.21 852 25.16 7.4 45.3 67 1.6 34.9
23:10 1023 30.21 852 25.16 7.4 45.4 67 1.7 35
23:15 1023 30.21 852 25.16 7.4 45.3 66 1.5 34.7
23:20 1023 30.21 852 25.16 7.6 45.7 66 1.6 34.9
23:25 1023 30.21 852 25.16 7.6 45.6 66 1.7 35.1
23:30 1023 30.21 852 25.16 7.4 45.3 68 1.8 35.3
23:35 1023 30.21 853 25.19 7.4 45.4 66 1.5 34.6
23:40 1023 30.21 853 25.19 7.5 45.4 67 1.8 35.3
23:45 1023 30.21 853 25.19 7.3 45.1 69 2 35.7
23:50 1023 30.21 853 25.19 6.8 44.3 70 1.7 35.1
23:55 1023 30.21 853 25.19 6.5 43.6 72 1.9 35.3
24:00 1023 30.21 853 25.19 6.2 43.1 74 1.9 35.3